sensor_id;sensor_type;location;lat;lon;timestamp;P1;durP1;ratioP1;P2;durP2;ratioP2
41219;SDS011;26951;47.338;9.196;2023-04-24T00:01:34;1.10;;;1.00;;
41219;SDS011;26951;47.338;9.196;2023-04-24T00:04:20;0.93;;;0.70;;
41219;SDS011;26951;47.338;9.196;2023-04-24T00:07:04;0.80;;;0.80;;
41219;SDS011;26951;47.338;9.196;2023-04-24T00:12:34;0.93;;;0.80;;
41219;SDS011;26951;47.338;9.196;2023-04-24T00:15:18;0.75;;;0.50;;
41219;SDS011;26951;47.338;9.196;2023-04-24T00:18:02;3.35;;;0.98;;
41219;SDS011;26951;47.338;9.196;2023-04-24T00:20:47;1.83;;;0.98;;
41219;SDS011;26951;47.338;9.196;2023-04-24T00:23:31;0.60;;;0.60;;
41219;SDS011;26951;47.338;9.196;2023-04-24T00:26:15;1.23;;;0.90;;
41219;SDS011;26951;47.338;9.196;2023-04-24T00:28:59;0.85;;;0.82;;
41219;SDS011;26951;47.338;9.196;2023-04-24T00:31:43;0.85;;;0.80;;
41219;SDS011;26951;47.338;9.196;2023-04-24T00:34:27;1.38;;;1.00;;
41219;SDS011;26951;47.338;9.196;2023-04-24T00:37:12;1.10;;;1.00;;
41219;SDS011;26951;47.338;9.196;2023-04-24T00:39:56;1.08;;;0.98;;
41219;SDS011;26951;47.338;9.196;2023-04-24T00:42:40;1.63;;;1.00;;
41219;SDS011;26951;47.338;9.196;2023-04-24T00:45:24;0.95;;;0.90;;
41219;SDS011;26951;47.338;9.196;2023-04-24T00:48:08;2.47;;;1.10;;
41219;SDS011;26951;47.338;9.196;2023-04-24T00:50:52;0.70;;;0.70;;
41219;SDS011;26951;47.338;9.196;2023-04-24T00:53:37;1.00;;;0.80;;
41219;SDS011;26951;47.338;9.196;2023-04-24T00:56:21;1.33;;;1.17;;
41219;SDS011;26951;47.338;9.196;2023-04-24T00:59:06;10.57;;;1.73;;
41219;SDS011;26951;47.338;9.196;2023-04-24T01:04:59;1.55;;;0.98;;
41219;SDS011;26951;47.338;9.196;2023-04-24T01:07:45;1.25;;;1.15;;
41219;SDS011;26951;47.338;9.196;2023-04-24T01:10:32;1.23;;;1.10;;
41219;SDS011;26951;47.338;9.196;2023-04-24T01:13:19;1.33;;;1.20;;
41219;SDS011;26951;47.338;9.196;2023-04-24T01:16:04;1.20;;;1.10;;
41219;SDS011;26951;47.338;9.196;2023-04-24T01:18:48;1.83;;;0.90;;
41219;SDS011;26951;47.338;9.196;2023-04-24T01:21:34;0.90;;;0.90;;
41219;SDS011;26951;47.338;9.196;2023-04-24T01:24:20;1.52;;;0.93;;
41219;SDS011;26951;47.338;9.196;2023-04-24T01:27:04;0.70;;;0.70;;
41219;SDS011;26951;47.338;9.196;2023-04-24T01:29:49;1.30;;;0.90;;
41219;SDS011;26951;47.338;9.196;2023-04-24T01:32:35;0.93;;;0.80;;
41219;SDS011;26951;47.338;9.196;2023-04-24T01:35:20;0.90;;;0.73;;
41219;SDS011;26951;47.338;9.196;2023-04-24T01:38:05;1.27;;;0.82;;
41219;SDS011;26951;47.338;9.196;2023-04-24T01:40:49;0.80;;;0.80;;
41219;SDS011;26951;47.338;9.196;2023-04-24T01:43:34;0.88;;;0.60;;
41219;SDS011;26951;47.338;9.196;2023-04-24T01:46:18;0.95;;;0.63;;
41219;SDS011;26951;47.338;9.196;2023-04-24T01:49:02;1.58;;;0.65;;
41219;SDS011;26951;47.338;9.196;2023-04-24T01:51:46;0.88;;;0.80;;
41219;SDS011;26951;47.338;9.196;2023-04-24T01:54:31;0.73;;;0.67;;
41219;SDS011;26951;47.338;9.196;2023-04-24T01:57:16;0.70;;;0.70;;
41219;SDS011;26951;47.338;9.196;2023-04-24T02:00:00;0.70;;;0.63;;
41219;SDS011;26951;47.338;9.196;2023-04-24T02:02:44;1.33;;;0.90;;
41219;SDS011;26951;47.338;9.196;2023-04-24T02:05:28;0.30;;;0.30;;
41219;SDS011;26951;47.338;9.196;2023-04-24T02:08:13;1.25;;;1.15;;
41219;SDS011;26951;47.338;9.196;2023-04-24T02:10:57;0.57;;;0.57;;
41219;SDS011;26951;47.338;9.196;2023-04-24T02:13:41;0.55;;;0.55;;
41219;SDS011;26951;47.338;9.196;2023-04-24T02:16:25;0.40;;;0.40;;
41219;SDS011;26951;47.338;9.196;2023-04-24T02:19:09;0.45;;;0.45;;
41219;SDS011;26951;47.338;9.196;2023-04-24T02:21:54;0.40;;;0.40;;
41219;SDS011;26951;47.338;9.196;2023-04-24T02:24:38;0.50;;;0.50;;
41219;SDS011;26951;47.338;9.196;2023-04-24T02:27:22;0.52;;;0.30;;
41219;SDS011;26951;47.338;9.196;2023-04-24T02:30:06;0.50;;;0.50;;
41219;SDS011;26951;47.338;9.196;2023-04-24T02:32:51;0.95;;;0.57;;
41219;SDS011;26951;47.338;9.196;2023-04-24T02:35:36;0.60;;;0.60;;
41219;SDS011;26951;47.338;9.196;2023-04-24T02:38:20;1.00;;;0.90;;
41219;SDS011;26951;47.338;9.196;2023-04-24T02:41:04;1.33;;;1.15;;
41219;SDS011;26951;47.338;9.196;2023-04-24T02:43:49;1.27;;;1.17;;
41219;SDS011;26951;47.338;9.196;2023-04-24T02:46:34;1.40;;;1.30;;
41219;SDS011;26951;47.338;9.196;2023-04-24T02:49:18;2.33;;;1.33;;
41219;SDS011;26951;47.338;9.196;2023-04-24T02:52:02;1.02;;;1.02;;
41219;SDS011;26951;47.338;9.196;2023-04-24T02:54:46;1.30;;;1.20;;
41219;SDS011;26951;47.338;9.196;2023-04-24T02:57:30;1.30;;;0.98;;
41219;SDS011;26951;47.338;9.196;2023-04-24T03:00:14;2.45;;;1.20;;
41219;SDS011;26951;47.338;9.196;2023-04-24T03:02:59;0.90;;;0.90;;
41219;SDS011;26951;47.338;9.196;2023-04-24T03:05:43;1.13;;;1.02;;
41219;SDS011;26951;47.338;9.196;2023-04-24T03:08:27;1.50;;;1.40;;
41219;SDS011;26951;47.338;9.196;2023-04-24T03:11:11;0.90;;;0.90;;
41219;SDS011;26951;47.338;9.196;2023-04-24T03:13:55;2.08;;;1.00;;
41219;SDS011;26951;47.338;9.196;2023-04-24T03:16:39;1.13;;;1.00;;
41219;SDS011;26951;47.338;9.196;2023-04-24T03:19:23;1.13;;;1.00;;
41219;SDS011;26951;47.338;9.196;2023-04-24T03:22:07;1.38;;;1.02;;
41219;SDS011;26951;47.338;9.196;2023-04-24T03:24:53;1.85;;;0.85;;
41219;SDS011;26951;47.338;9.196;2023-04-24T03:27:38;1.10;;;1.00;;
41219;SDS011;26951;47.338;9.196;2023-04-24T03:30:23;1.00;;;1.00;;
41219;SDS011;26951;47.338;9.196;2023-04-24T03:33:07;1.13;;;0.90;;
41219;SDS011;26951;47.338;9.196;2023-04-24T03:35:51;0.85;;;0.80;;
41219;SDS011;26951;47.338;9.196;2023-04-24T03:38:36;1.10;;;0.80;;
41219;SDS011;26951;47.338;9.196;2023-04-24T03:41:20;1.23;;;0.90;;
41219;SDS011;26951;47.338;9.196;2023-04-24T03:44:06;1.05;;;0.95;;
41219;SDS011;26951;47.338;9.196;2023-04-24T03:46:49;1.00;;;0.90;;
41219;SDS011;26951;47.338;9.196;2023-04-24T03:49:34;1.00;;;0.90;;
41219;SDS011;26951;47.338;9.196;2023-04-24T03:52:18;0.75;;;0.75;;
41219;SDS011;26951;47.338;9.196;2023-04-24T03:55:02;1.52;;;1.40;;
41219;SDS011;26951;47.338;9.196;2023-04-24T03:57:46;0.70;;;0.70;;
41219;SDS011;26951;47.338;9.196;2023-04-24T04:00:31;1.35;;;0.70;;
41219;SDS011;26951;47.338;9.196;2023-04-24T04:03:15;0.60;;;0.60;;
41219;SDS011;26951;47.338;9.196;2023-04-24T04:05:59;0.70;;;0.70;;
41219;SDS011;26951;47.338;9.196;2023-04-24T04:08:43;0.82;;;0.60;;
41219;SDS011;26951;47.338;9.196;2023-04-24T04:11:27;0.50;;;0.50;;
41219;SDS011;26951;47.338;9.196;2023-04-24T04:14:12;0.50;;;0.50;;
41219;SDS011;26951;47.338;9.196;2023-04-24T04:16:56;0.60;;;0.60;;
41219;SDS011;26951;47.338;9.196;2023-04-24T04:19:40;0.60;;;0.60;;
41219;SDS011;26951;47.338;9.196;2023-04-24T04:22:24;0.73;;;0.73;;
41219;SDS011;26951;47.338;9.196;2023-04-24T04:25:08;0.57;;;0.57;;
41219;SDS011;26951;47.338;9.196;2023-04-24T04:27:52;0.85;;;0.85;;
41219;SDS011;26951;47.338;9.196;2023-04-24T04:30:37;0.85;;;0.70;;
41219;SDS011;26951;47.338;9.196;2023-04-24T04:33:22;0.60;;;0.60;;
41219;SDS011;26951;47.338;9.196;2023-04-24T04:36:06;0.70;;;0.70;;
41219;SDS011;26951;47.338;9.196;2023-04-24T04:38:51;0.70;;;0.70;;
41219;SDS011;26951;47.338;9.196;2023-04-24T04:41:35;0.80;;;0.80;;
41219;SDS011;26951;47.338;9.196;2023-04-24T04:44:19;0.60;;;0.60;;
41219;SDS011;26951;47.338;9.196;2023-04-24T04:47:03;1.02;;;0.93;;
41219;SDS011;26951;47.338;9.196;2023-04-24T04:49:49;0.70;;;0.70;;
41219;SDS011;26951;47.338;9.196;2023-04-24T04:52:35;0.63;;;0.60;;
41219;SDS011;26951;47.338;9.196;2023-04-24T04:55:19;0.82;;;0.82;;
41219;SDS011;26951;47.338;9.196;2023-04-24T04:58:03;0.50;;;0.50;;
41219;SDS011;26951;47.338;9.196;2023-04-24T05:00:47;0.80;;;0.80;;
41219;SDS011;26951;47.338;9.196;2023-04-24T05:03:32;0.88;;;0.75;;
41219;SDS011;26951;47.338;9.196;2023-04-24T05:06:16;0.70;;;0.70;;
41219;SDS011;26951;47.338;9.196;2023-04-24T05:09:00;0.80;;;0.80;;
41219;SDS011;26951;47.338;9.196;2023-04-24T05:11:44;1.55;;;1.00;;
41219;SDS011;26951;47.338;9.196;2023-04-24T05:14:29;0.70;;;0.70;;
41219;SDS011;26951;47.338;9.196;2023-04-24T05:17:13;0.90;;;0.90;;
41219;SDS011;26951;47.338;9.196;2023-04-24T05:19:57;0.60;;;0.60;;
41219;SDS011;26951;47.338;9.196;2023-04-24T05:22:41;0.98;;;0.90;;
41219;SDS011;26951;47.338;9.196;2023-04-24T05:25:25;0.52;;;0.40;;
41219;SDS011;26951;47.338;9.196;2023-04-24T05:28:09;0.70;;;0.70;;
41219;SDS011;26951;47.338;9.196;2023-04-24T05:30:54;1.20;;;0.73;;
41219;SDS011;26951;47.338;9.196;2023-04-24T05:33:42;0.80;;;0.80;;
41219;SDS011;26951;47.338;9.196;2023-04-24T05:36:26;0.68;;;0.63;;
41219;SDS011;26951;47.338;9.196;2023-04-24T05:39:10;1.15;;;1.00;;
41219;SDS011;26951;47.338;9.196;2023-04-24T05:41:55;0.73;;;0.52;;
41219;SDS011;26951;47.338;9.196;2023-04-24T05:44:41;0.60;;;0.60;;
41219;SDS011;26951;47.338;9.196;2023-04-24T05:47:25;0.50;;;0.50;;
41219;SDS011;26951;47.338;9.196;2023-04-24T05:50:10;0.57;;;0.57;;
41219;SDS011;26951;47.338;9.196;2023-04-24T05:52:54;1.65;;;0.60;;
41219;SDS011;26951;47.338;9.196;2023-04-24T05:55:40;0.50;;;0.47;;
41219;SDS011;26951;47.338;9.196;2023-04-24T05:58:24;1.42;;;0.55;;
41219;SDS011;26951;47.338;9.196;2023-04-24T06:01:08;1.13;;;0.60;;
41219;SDS011;26951;47.338;9.196;2023-04-24T06:03:53;0.43;;;0.43;;
41219;SDS011;26951;47.338;9.196;2023-04-24T06:06:37;0.50;;;0.40;;
41219;SDS011;26951;47.338;9.196;2023-04-24T06:09:22;0.63;;;0.50;;
41219;SDS011;26951;47.338;9.196;2023-04-24T06:12:06;0.50;;;0.50;;
41219;SDS011;26951;47.338;9.196;2023-04-24T06:14:52;0.40;;;0.40;;
41219;SDS011;26951;47.338;9.196;2023-04-24T06:17:36;0.50;;;0.50;;
41219;SDS011;26951;47.338;9.196;2023-04-24T06:20:20;0.38;;;0.38;;
41219;SDS011;26951;47.338;9.196;2023-04-24T06:23:04;0.40;;;0.40;;
41219;SDS011;26951;47.338;9.196;2023-04-24T06:25:48;0.50;;;0.50;;
41219;SDS011;26951;47.338;9.196;2023-04-24T06:28:33;0.50;;;0.50;;
41219;SDS011;26951;47.338;9.196;2023-04-24T06:31:19;0.50;;;0.50;;
41219;SDS011;26951;47.338;9.196;2023-04-24T06:34:03;0.40;;;0.40;;
41219;SDS011;26951;47.338;9.196;2023-04-24T06:36:48;0.40;;;0.40;;
41219;SDS011;26951;47.338;9.196;2023-04-24T06:39:32;0.40;;;0.40;;
41219;SDS011;26951;47.338;9.196;2023-04-24T06:42:16;0.30;;;0.30;;
41219;SDS011;26951;47.338;9.196;2023-04-24T06:45:00;2.22;;;0.60;;
41219;SDS011;26951;47.338;9.196;2023-04-24T06:47:45;0.68;;;0.65;;
41219;SDS011;26951;47.338;9.196;2023-04-24T06:50:28;0.60;;;0.60;;
41219;SDS011;26951;47.338;9.196;2023-04-24T06:53:13;0.60;;;0.60;;
41219;SDS011;26951;47.338;9.196;2023-04-24T06:55:58;0.40;;;0.40;;
41219;SDS011;26951;47.338;9.196;2023-04-24T06:58:42;1.17;;;0.52;;
41219;SDS011;26951;47.338;9.196;2023-04-24T07:01:26;0.50;;;0.50;;
41219;SDS011;26951;47.338;9.196;2023-04-24T07:04:11;1.42;;;0.60;;
41219;SDS011;26951;47.338;9.196;2023-04-24T07:06:56;0.60;;;0.60;;
41219;SDS011;26951;47.338;9.196;2023-04-24T07:09:41;0.80;;;0.80;;
41219;SDS011;26951;47.338;9.196;2023-04-24T07:12:25;1.42;;;1.23;;
41219;SDS011;26951;47.338;9.196;2023-04-24T07:15:10;1.83;;;1.15;;
41219;SDS011;26951;47.338;9.196;2023-04-24T07:17:54;1.63;;;1.30;;
41219;SDS011;26951;47.338;9.196;2023-04-24T07:20:38;1.90;;;1.42;;
41219;SDS011;26951;47.338;9.196;2023-04-24T07:23:23;1.60;;;1.30;;
41219;SDS011;26951;47.338;9.196;2023-04-24T07:26:07;1.70;;;1.50;;
41219;SDS011;26951;47.338;9.196;2023-04-24T07:28:51;3.05;;;1.52;;
41219;SDS011;26951;47.338;9.196;2023-04-24T07:31:35;1.83;;;1.50;;
41219;SDS011;26951;47.338;9.196;2023-04-24T07:34:19;1.42;;;1.33;;
41219;SDS011;26951;47.338;9.196;2023-04-24T07:37:03;2.03;;;1.77;;
41219;SDS011;26951;47.338;9.196;2023-04-24T07:39:48;2.30;;;2.00;;
41219;SDS011;26951;47.338;9.196;2023-04-24T07:42:33;3.50;;;1.83;;
41219;SDS011;26951;47.338;9.196;2023-04-24T07:45:18;1.60;;;1.50;;
41219;SDS011;26951;47.338;9.196;2023-04-24T07:48:02;3.13;;;1.70;;
41219;SDS011;26951;47.338;9.196;2023-04-24T07:50:46;2.10;;;1.88;;
41219;SDS011;26951;47.338;9.196;2023-04-24T07:53:31;2.88;;;1.90;;
41219;SDS011;26951;47.338;9.196;2023-04-24T07:56:15;5.22;;;2.45;;
41219;SDS011;26951;47.338;9.196;2023-04-24T08:01:45;1.65;;;1.52;;
41219;SDS011;26951;47.338;9.196;2023-04-24T08:04:29;2.17;;;1.60;;
41219;SDS011;26951;47.338;9.196;2023-04-24T08:07:13;4.53;;;1.80;;
41219;SDS011;26951;47.338;9.196;2023-04-24T08:09:58;1.58;;;1.42;;
41219;SDS011;26951;47.338;9.196;2023-04-24T08:12:42;4.57;;;2.17;;
41219;SDS011;26951;47.338;9.196;2023-04-24T08:15:27;1.85;;;1.40;;
41219;SDS011;26951;47.338;9.196;2023-04-24T08:18:11;2.58;;;1.50;;
41219;SDS011;26951;47.338;9.196;2023-04-24T08:23:45;1.52;;;1.35;;
41219;SDS011;26951;47.338;9.196;2023-04-24T08:26:29;2.20;;;1.60;;
41219;SDS011;26951;47.338;9.196;2023-04-24T08:29:13;1.20;;;1.10;;
41219;SDS011;26951;47.338;9.196;2023-04-24T08:31:57;2.08;;;1.35;;
41219;SDS011;26951;47.338;9.196;2023-04-24T08:34:41;2.08;;;1.70;;
41219;SDS011;26951;47.338;9.196;2023-04-24T08:37:26;2.17;;;1.45;;
41219;SDS011;26951;47.338;9.196;2023-04-24T08:40:12;2.10;;;1.63;;
41219;SDS011;26951;47.338;9.196;2023-04-24T08:42:58;1.65;;;1.45;;
41219;SDS011;26951;47.338;9.196;2023-04-24T08:45:44;2.95;;;1.60;;
41219;SDS011;26951;47.338;9.196;2023-04-24T08:48:28;2.90;;;1.70;;
41219;SDS011;26951;47.338;9.196;2023-04-24T08:51:12;3.13;;;1.70;;
41219;SDS011;26951;47.338;9.196;2023-04-24T08:53:57;2.75;;;1.90;;
41219;SDS011;26951;47.338;9.196;2023-04-24T08:56:42;3.50;;;1.80;;
41219;SDS011;26951;47.338;9.196;2023-04-24T08:59:28;3.13;;;2.10;;
41219;SDS011;26951;47.338;9.196;2023-04-24T09:02:13;4.10;;;1.85;;
41219;SDS011;26951;47.338;9.196;2023-04-24T09:04:58;3.63;;;2.25;;
41219;SDS011;26951;47.338;9.196;2023-04-24T09:07:44;2.00;;;1.80;;
41219;SDS011;26951;47.338;9.196;2023-04-24T09:10:33;3.58;;;2.15;;
41219;SDS011;26951;47.338;9.196;2023-04-24T09:13:18;3.70;;;1.92;;
41219;SDS011;26951;47.338;9.196;2023-04-24T09:16:05;2.42;;;1.48;;
41219;SDS011;26951;47.338;9.196;2023-04-24T09:18:50;2.30;;;1.90;;
41219;SDS011;26951;47.338;9.196;2023-04-24T09:21:35;2.10;;;1.42;;
41219;SDS011;26951;47.338;9.196;2023-04-24T09:24:20;1.98;;;1.60;;
41219;SDS011;26951;47.338;9.196;2023-04-24T09:27:08;2.42;;;1.95;;
41219;SDS011;26951;47.338;9.196;2023-04-24T09:29:55;1.50;;;1.40;;
41219;SDS011;26951;47.338;9.196;2023-04-24T09:32:40;2.45;;;1.75;;
41219;SDS011;26951;47.338;9.196;2023-04-24T09:35:25;2.10;;;1.88;;
41219;SDS011;26951;47.338;9.196;2023-04-24T09:38:09;1.58;;;1.48;;
41219;SDS011;26951;47.338;9.196;2023-04-24T09:40:54;2.90;;;1.95;;
41219;SDS011;26951;47.338;9.196;2023-04-24T09:43:38;1.85;;;1.70;;
41219;SDS011;26951;47.338;9.196;2023-04-24T09:46:29;2.75;;;2.15;;
41219;SDS011;26951;47.338;9.196;2023-04-24T09:49:21;3.55;;;2.30;;
41219;SDS011;26951;47.338;9.196;2023-04-24T09:52:10;3.50;;;2.45;;
41219;SDS011;26951;47.338;9.196;2023-04-24T09:54:55;3.30;;;2.60;;
41219;SDS011;26951;47.338;9.196;2023-04-24T09:57:52;3.83;;;2.65;;
41219;SDS011;26951;47.338;9.196;2023-04-24T10:00:38;2.70;;;2.22;;
41219;SDS011;26951;47.338;9.196;2023-04-24T10:03:23;2.30;;;2.08;;
41219;SDS011;26951;47.338;9.196;2023-04-24T10:06:11;5.15;;;2.17;;
41219;SDS011;26951;47.338;9.196;2023-04-24T10:08:56;4.10;;;2.28;;
41219;SDS011;26951;47.338;9.196;2023-04-24T10:11:42;2.67;;;2.03;;
41219;SDS011;26951;47.338;9.196;2023-04-24T10:14:28;2.80;;;2.00;;
41219;SDS011;26951;47.338;9.196;2023-04-24T10:17:13;2.90;;;2.08;;
41219;SDS011;26951;47.338;9.196;2023-04-24T10:19:58;2.45;;;1.95;;
41219;SDS011;26951;47.338;9.196;2023-04-24T10:22:45;2.42;;;1.98;;
41219;SDS011;26951;47.338;9.196;2023-04-24T10:25:34;2.53;;;2.30;;
41219;SDS011;26951;47.338;9.196;2023-04-24T10:28:19;6.32;;;2.88;;
41219;SDS011;26951;47.338;9.196;2023-04-24T10:31:04;3.03;;;2.60;;
41219;SDS011;26951;47.338;9.196;2023-04-24T10:33:49;5.90;;;2.60;;
41219;SDS011;26951;47.338;9.196;2023-04-24T10:36:36;3.60;;;2.90;;
41219;SDS011;26951;47.338;9.196;2023-04-24T10:39:24;4.20;;;2.38;;
41219;SDS011;26951;47.338;9.196;2023-04-24T10:42:15;3.22;;;2.55;;
41219;SDS011;26951;47.338;9.196;2023-04-24T10:45:04;3.63;;;2.38;;
41219;SDS011;26951;47.338;9.196;2023-04-24T10:48:02;2.50;;;2.30;;
41219;SDS011;26951;47.338;9.196;2023-04-24T10:50:53;6.18;;;2.45;;
41219;SDS011;26951;47.338;9.196;2023-04-24T10:53:37;3.83;;;2.40;;
41219;SDS011;26951;47.338;9.196;2023-04-24T10:56:21;3.35;;;2.30;;
41219;SDS011;26951;47.338;9.196;2023-04-24T10:59:07;3.30;;;2.40;;
41219;SDS011;26951;47.338;9.196;2023-04-24T11:01:54;2.90;;;2.60;;
41219;SDS011;26951;47.338;9.196;2023-04-24T11:04:41;2.28;;;2.05;;
41219;SDS011;26951;47.338;9.196;2023-04-24T11:07:26;2.13;;;1.92;;
41219;SDS011;26951;47.338;9.196;2023-04-24T11:10:13;5.22;;;2.42;;
41219;SDS011;26951;47.338;9.196;2023-04-24T11:13:09;3.50;;;2.42;;
41219;SDS011;26951;47.338;9.196;2023-04-24T11:19:04;2.47;;;2.28;;
41219;SDS011;26951;47.338;9.196;2023-04-24T11:22:02;3.38;;;2.00;;
41219;SDS011;26951;47.338;9.196;2023-04-24T11:27:40;4.32;;;2.15;;
41219;SDS011;26951;47.338;9.196;2023-04-24T11:30:29;2.22;;;2.03;;
41219;SDS011;26951;47.338;9.196;2023-04-24T11:33:14;4.30;;;2.60;;
41219;SDS011;26951;47.338;9.196;2023-04-24T11:36:04;3.05;;;2.30;;
41219;SDS011;26951;47.338;9.196;2023-04-24T11:38:49;5.68;;;2.30;;
41219;SDS011;26951;47.338;9.196;2023-04-24T11:41:33;2.15;;;1.67;;
41219;SDS011;26951;47.338;9.196;2023-04-24T11:44:19;4.60;;;2.30;;
41219;SDS011;26951;47.338;9.196;2023-04-24T11:47:05;3.25;;;2.13;;
41219;SDS011;26951;47.338;9.196;2023-04-24T11:49:52;4.70;;;2.58;;
41219;SDS011;26951;47.338;9.196;2023-04-24T11:52:37;2.28;;;2.00;;
41219;SDS011;26951;47.338;9.196;2023-04-24T11:58:09;4.57;;;2.33;;
41219;SDS011;26951;47.338;9.196;2023-04-24T12:00:56;3.65;;;2.20;;
41219;SDS011;26951;47.338;9.196;2023-04-24T12:03:48;2.50;;;2.13;;
41219;SDS011;26951;47.338;9.196;2023-04-24T12:06:34;3.38;;;2.83;;
41219;SDS011;26951;47.338;9.196;2023-04-24T12:09:18;2.70;;;2.40;;
41219;SDS011;26951;47.338;9.196;2023-04-24T12:12:02;3.25;;;2.95;;
41219;SDS011;26951;47.338;9.196;2023-04-24T12:14:51;3.53;;;3.05;;
41219;SDS011;26951;47.338;9.196;2023-04-24T12:17:40;6.53;;;3.42;;
41219;SDS011;26951;47.338;9.196;2023-04-24T12:20:29;6.78;;;3.25;;
41219;SDS011;26951;47.338;9.196;2023-04-24T12:23:15;3.67;;;2.88;;
41219;SDS011;26951;47.338;9.196;2023-04-24T12:28:48;4.43;;;2.85;;
41219;SDS011;26951;47.338;9.196;2023-04-24T12:31:33;3.43;;;2.47;;
41219;SDS011;26951;47.338;9.196;2023-04-24T12:34:18;3.97;;;2.50;;
41219;SDS011;26951;47.338;9.196;2023-04-24T12:37:10;3.65;;;2.80;;
41219;SDS011;26951;47.338;9.196;2023-04-24T12:42:54;6.10;;;2.83;;
41219;SDS011;26951;47.338;9.196;2023-04-24T12:45:38;4.45;;;2.70;;
41219;SDS011;26951;47.338;9.196;2023-04-24T12:48:22;4.82;;;3.25;;
41219;SDS011;26951;47.338;9.196;2023-04-24T12:51:06;3.80;;;2.45;;
41219;SDS011;26951;47.338;9.196;2023-04-24T12:53:50;2.90;;;2.60;;
41219;SDS011;26951;47.338;9.196;2023-04-24T12:56:34;4.32;;;2.55;;
41219;SDS011;26951;47.338;9.196;2023-04-24T12:59:22;3.22;;;2.92;;
41219;SDS011;26951;47.338;9.196;2023-04-24T13:02:06;3.10;;;2.40;;
41219;SDS011;26951;47.338;9.196;2023-04-24T13:04:52;3.17;;;2.88;;
41219;SDS011;26951;47.338;9.196;2023-04-24T13:07:37;3.97;;;2.58;;
41219;SDS011;26951;47.338;9.196;2023-04-24T13:10:21;3.50;;;2.70;;
41219;SDS011;26951;47.338;9.196;2023-04-24T13:13:05;3.97;;;2.60;;
41219;SDS011;26951;47.338;9.196;2023-04-24T13:15:49;6.70;;;2.63;;
41219;SDS011;26951;47.338;9.196;2023-04-24T13:18:34;4.03;;;2.90;;
41219;SDS011;26951;47.338;9.196;2023-04-24T13:21:18;4.40;;;2.92;;
41219;SDS011;26951;47.338;9.196;2023-04-24T13:24:02;3.97;;;2.72;;
41219;SDS011;26951;47.338;9.196;2023-04-24T13:26:48;3.40;;;3.00;;
41219;SDS011;26951;47.338;9.196;2023-04-24T13:29:32;4.75;;;2.95;;
41219;SDS011;26951;47.338;9.196;2023-04-24T13:32:16;3.05;;;2.63;;
41219;SDS011;26951;47.338;9.196;2023-04-24T13:35:00;3.60;;;2.67;;
41219;SDS011;26951;47.338;9.196;2023-04-24T13:37:45;3.85;;;2.70;;
41219;SDS011;26951;47.338;9.196;2023-04-24T13:40:29;4.78;;;3.55;;
41219;SDS011;26951;47.338;9.196;2023-04-24T13:43:14;3.38;;;2.92;;
41219;SDS011;26951;47.338;9.196;2023-04-24T13:45:59;7.55;;;2.80;;
41219;SDS011;26951;47.338;9.196;2023-04-24T13:48:45;3.55;;;2.25;;
41219;SDS011;26951;47.338;9.196;2023-04-24T13:51:30;2.92;;;2.60;;
41219;SDS011;26951;47.338;9.196;2023-04-24T13:54:14;4.80;;;2.60;;
41219;SDS011;26951;47.338;9.196;2023-04-24T13:56:58;3.80;;;2.63;;
41219;SDS011;26951;47.338;9.196;2023-04-24T13:59:42;3.80;;;2.45;;
41219;SDS011;26951;47.338;9.196;2023-04-24T14:02:27;4.00;;;2.30;;
41219;SDS011;26951;47.338;9.196;2023-04-24T14:05:12;2.78;;;2.38;;
41219;SDS011;26951;47.338;9.196;2023-04-24T14:07:58;3.55;;;2.67;;
41219;SDS011;26951;47.338;9.196;2023-04-24T14:10:43;5.22;;;3.05;;
41219;SDS011;26951;47.338;9.196;2023-04-24T14:13:27;3.08;;;2.40;;
41219;SDS011;26951;47.338;9.196;2023-04-24T14:16:11;2.70;;;2.35;;
41219;SDS011;26951;47.338;9.196;2023-04-24T14:18:56;3.37;;;2.50;;
41219;SDS011;26951;47.338;9.196;2023-04-24T14:21:40;2.85;;;2.40;;
41219;SDS011;26951;47.338;9.196;2023-04-24T14:24:24;4.45;;;2.80;;
41219;SDS011;26951;47.338;9.196;2023-04-24T14:27:08;5.65;;;2.95;;
41219;SDS011;26951;47.338;9.196;2023-04-24T14:29:53;3.42;;;2.50;;
41219;SDS011;26951;47.338;9.196;2023-04-24T14:32:37;3.10;;;2.42;;
41219;SDS011;26951;47.338;9.196;2023-04-24T14:35:23;3.25;;;2.33;;
41219;SDS011;26951;47.338;9.196;2023-04-24T14:38:07;3.92;;;2.35;;
41219;SDS011;26951;47.338;9.196;2023-04-24T14:40:51;4.35;;;2.20;;
41219;SDS011;26951;47.338;9.196;2023-04-24T14:43:35;2.67;;;2.28;;
41219;SDS011;26951;47.338;9.196;2023-04-24T14:46:20;2.33;;;1.83;;
41219;SDS011;26951;47.338;9.196;2023-04-24T14:49:04;2.70;;;1.98;;
41219;SDS011;26951;47.338;9.196;2023-04-24T14:51:48;3.08;;;2.22;;
41219;SDS011;26951;47.338;9.196;2023-04-24T14:54:32;1.98;;;1.75;;
41219;SDS011;26951;47.338;9.196;2023-04-24T14:57:16;2.90;;;2.00;;
41219;SDS011;26951;47.338;9.196;2023-04-24T15:00:00;2.60;;;2.33;;
41219;SDS011;26951;47.338;9.196;2023-04-24T15:02:45;3.37;;;1.97;;
41219;SDS011;26951;47.338;9.196;2023-04-24T15:05:29;2.92;;;2.00;;
41219;SDS011;26951;47.338;9.196;2023-04-24T15:08:13;2.70;;;1.65;;
41219;SDS011;26951;47.338;9.196;2023-04-24T15:10:57;2.05;;;1.85;;
41219;SDS011;26951;47.338;9.196;2023-04-24T15:13:42;2.50;;;1.80;;
41219;SDS011;26951;47.338;9.196;2023-04-24T15:16:26;1.60;;;1.50;;
41219;SDS011;26951;47.338;9.196;2023-04-24T15:19:10;3.03;;;2.20;;
41219;SDS011;26951;47.338;9.196;2023-04-24T15:21:54;2.35;;;1.90;;
41219;SDS011;26951;47.338;9.196;2023-04-24T15:24:39;2.80;;;1.85;;
41219;SDS011;26951;47.338;9.196;2023-04-24T15:27:23;2.45;;;2.22;;
41219;SDS011;26951;47.338;9.196;2023-04-24T15:30:07;2.85;;;1.58;;
41219;SDS011;26951;47.338;9.196;2023-04-24T15:32:53;3.70;;;2.15;;
41219;SDS011;26951;47.338;9.196;2023-04-24T15:35:37;2.00;;;1.73;;
41219;SDS011;26951;47.338;9.196;2023-04-24T15:38:21;2.45;;;2.25;;
41219;SDS011;26951;47.338;9.196;2023-04-24T15:41:05;3.30;;;2.20;;
41219;SDS011;26951;47.338;9.196;2023-04-24T15:43:50;2.67;;;2.22;;
41219;SDS011;26951;47.338;9.196;2023-04-24T15:46:34;2.63;;;2.08;;
41219;SDS011;26951;47.338;9.196;2023-04-24T15:49:19;3.08;;;2.30;;
41219;SDS011;26951;47.338;9.196;2023-04-24T15:52:03;2.45;;;2.25;;
41219;SDS011;26951;47.338;9.196;2023-04-24T15:54:47;2.97;;;2.40;;
41219;SDS011;26951;47.338;9.196;2023-04-24T15:57:32;2.47;;;2.27;;
41219;SDS011;26951;47.338;9.196;2023-04-24T16:00:16;3.83;;;2.75;;
41219;SDS011;26951;47.338;9.196;2023-04-24T16:03:01;2.10;;;1.90;;
41219;SDS011;26951;47.338;9.196;2023-04-24T16:05:45;2.70;;;2.40;;
41219;SDS011;26951;47.338;9.196;2023-04-24T16:08:29;3.10;;;2.35;;
41219;SDS011;26951;47.338;9.196;2023-04-24T16:11:14;2.97;;;2.33;;
41219;SDS011;26951;47.338;9.196;2023-04-24T16:13:58;2.40;;;2.20;;
41219;SDS011;26951;47.338;9.196;2023-04-24T16:16:42;3.05;;;2.58;;
41219;SDS011;26951;47.338;9.196;2023-04-24T16:19:26;2.50;;;2.30;;
41219;SDS011;26951;47.338;9.196;2023-04-24T16:22:10;4.07;;;2.67;;
41219;SDS011;26951;47.338;9.196;2023-04-24T16:24:54;3.28;;;2.45;;
41219;SDS011;26951;47.338;9.196;2023-04-24T16:27:39;9.68;;;3.15;;
41219;SDS011;26951;47.338;9.196;2023-04-24T16:30:23;3.67;;;2.30;;
41219;SDS011;26951;47.338;9.196;2023-04-24T16:33:08;3.35;;;2.35;;
41219;SDS011;26951;47.338;9.196;2023-04-24T16:38:38;5.57;;;2.63;;
41219;SDS011;26951;47.338;9.196;2023-04-24T16:41:23;3.35;;;2.45;;
41219;SDS011;26951;47.338;9.196;2023-04-24T16:44:07;4.60;;;2.63;;
41219;SDS011;26951;47.338;9.196;2023-04-24T16:46:51;2.90;;;2.45;;
41219;SDS011;26951;47.338;9.196;2023-04-24T16:49:35;2.90;;;2.10;;
41219;SDS011;26951;47.338;9.196;2023-04-24T16:52:19;5.40;;;2.63;;
41219;SDS011;26951;47.338;9.196;2023-04-24T16:55:04;2.63;;;2.20;;
41219;SDS011;26951;47.338;9.196;2023-04-24T16:57:48;2.20;;;2.00;;
41219;SDS011;26951;47.338;9.196;2023-04-24T17:00:32;2.65;;;2.00;;
41219;SDS011;26951;47.338;9.196;2023-04-24T17:03:16;5.68;;;2.30;;